Stations météo

réclame
Mon MeteoGroup
Southampton oceanography centre, Grande-Bretagne (99079): Température de l'air & dewpoint: 18.01.2021 15:00:00 - 24.01.2021 15:00:00 (GMT)Southampton oceanography centre, Grande-Bretagne (99079): Vitesse du vent & gusts: 18.01.2021 15:00:00 - 24.01.2021 15:00:00 (GMT)Southampton oceanography centre, Grande-Bretagne (99079): Direction du vent: 18.01.2021 15:00:00 - 24.01.2021 15:00:00 (GMT)Southampton oceanography centre, Grande-Bretagne (99079): Quantités de précipitations: 18.01.2021 15:00:00 - 24.01.2021 15:00:00 (GMT)
Date & Time tt [°C] td [°C] ff [km/h] ff [knt] fx [km/h] fx [knt] dd rr [mm]
24.01.2021 15:00:00 - - - - - - - -
24.01.2021 14:00:00 4,6 2,1 5 3 - - WNW 0,0
24.01.2021 13:00:00 3,7 1,8 8 4 - - NW 0,0
24.01.2021 12:00:00 2,6 1,3 13 7 - - NW 0,0
24.01.2021 11:00:00 2,2 1,5 9 5 - - WNW 0,0
24.01.2021 10:00:00 1,2 0,6 4 2 - - NNE 0,0
24.01.2021 09:00:00 1,1 0,5 11 6 - - NNE 0,0
24.01.2021 08:00:00 2,1 0,6 4 2 - - ENE 0,0
24.01.2021 07:00:00 2,1 0,0 8 4 - - S 0,0
24.01.2021 06:00:00 0,7 -1,4 5 3 - - ENE 0,0
24.01.2021 05:00:00 0,2 -1,4 8 4 - - E 0,0
24.01.2021 04:00:00 -0,4 -1,9 5 3 - - ENE 0,0
24.01.2021 03:00:00 -0,3 -1,8 4 2 - - ENE 0,0
24.01.2021 02:00:00 -0,5 -2,1 0 0 - - N 0,0
24.01.2021 01:00:00 -0,9 -2,6 2 1 - - WSW 0,0
24.01.2021 00:00:00 -0,2 -2,2 8 4 - - W 0,0
23.01.2021 23:00:00 0,5 -1,7 8 4 - - W 0,0
23.01.2021 22:00:00 0,8 -1,9 11 6 - - W 0,0
23.01.2021 21:00:00 1,0 -2,2 9 5 - - W 0,0
23.01.2021 20:00:00 2,2 -2,0 9 5 - - W 0,0
23.01.2021 19:00:00 2,8 -2,1 8 4 - - W 0,0
23.01.2021 18:00:00 3,6 -2,6 9 5 - - NW 0,0
23.01.2021 17:00:00 4,4 -2,5 9 5 - - NW 0,0
23.01.2021 16:00:00 5,3 -2,7 15 8 - - NW 0,0
23.01.2021 15:00:00 5,4 -1,6 16 9 - - NW 0,0
23.01.2021 14:00:00 5,4 -0,8 15 8 - - NW 0,0
23.01.2021 13:00:00 4,5 -0,1 15 8 - - NNW 0,0
23.01.2021 12:00:00 3,5 0,7 9 5 - - NW 0,0
23.01.2021 11:00:00 2,5 1,1 5 3 - - WNW 0,0
23.01.2021 10:00:00 0,8 -0,3 5 3 - - WNW 0,0
23.01.2021 09:00:00 0,9 -0,1 4 2 - - WNW 0,0
23.01.2021 08:00:00 0,9 -0,1 9 5 - - N 0,0
23.01.2021 07:00:00 0,6 -0,3 13 7 - - N 0,0
23.01.2021 06:00:00 0,7 -0,3 11 6 - - N 0,0
23.01.2021 05:00:00 1,3 0,2 4 2 - - ENE 0,0
23.01.2021 04:00:00 1,6 0,4 2 1 - - ESE 0,0
23.01.2021 03:00:00 1,1 -0,3 0 0 - - N 0,0
23.01.2021 02:00:00 1,4 0,1 2 1 - - W 0,0
23.01.2021 01:00:00 2,1 0,4 9 5 - - WSW 0,0
23.01.2021 00:00:00 3,0 0,7 9 5 - - W 0,0
22.01.2021 23:00:00 3,6 1,0 15 8 - - W 0,0
22.01.2021 22:00:00 4,6 1,7 18 10 - - W 0,0
22.01.2021 21:00:00 4,5 1,5 21 11 - - W 0,0
22.01.2021 20:00:00 4,3 1,7 15 8 - - SW 0,0
22.01.2021 19:00:00 4,6 1,8 21 11 - - SW 0,0
22.01.2021 18:00:00 5,3 2,3 13 7 - - W 0,0
22.01.2021 17:00:00 6,7 2,8 15 8 - - SW 0,0
22.01.2021 16:00:00 8,5 2,9 16 9 - - SSW 0,0
22.01.2021 15:00:00 8,0 3,2 8 4 - - SSW 0,0
22.01.2021 14:00:00 7,4 2,1 9 5 - - WSW 0,0
22.01.2021 13:00:00 8,7 3,4 9 5 - - WSW 0,0
22.01.2021 12:00:00 9,2 3,8 5 3 - - SW 0,0
22.01.2021 11:00:00 5,4 3,4 5 3 - - W 0,0
22.01.2021 10:00:00 2,9 2,0 2 1 - - WNW 0,0
22.01.2021 09:00:00 0,8 0,0 5 3 - - WSW 0,0
22.01.2021 08:00:00 0,6 -0,2 2 1 - - W 0,0
22.01.2021 07:00:00 1,1 0,0 4 2 - - W 0,0
22.01.2021 06:00:00 1,7 0,5 5 3 - - WSW 0,0
22.01.2021 05:00:00 1,8 0,5 5 3 - - W 0,0
22.01.2021 04:00:00 2,0 0,6 9 5 - - W 0,0
22.01.2021 03:00:00 2,2 0,7 5 3 - - WNW 0,0
22.01.2021 02:00:00 2,7 1,0 9 5 - - W 0,0
22.01.2021 01:00:00 2,7 1,2 9 5 - - W 0,0
22.01.2021 00:00:00 3,2 1,6 9 5 - - W 0,0
21.01.2021 23:00:00 3,9 2,1 9 5 - - W 0,0
21.01.2021 22:00:00 4,6 2,3 8 4 - - SW 0,0
21.01.2021 21:00:00 5,5 2,6 13 7 - - W 0,0
21.01.2021 20:00:00 5,9 3,0 11 6 - - WSW 0,0
21.01.2021 19:00:00 5,7 3,5 5 3 - - W 0,0
21.01.2021 18:00:00 6,1 3,8 8 4 - - SSW 0,0
21.01.2021 17:00:00 6,6 4,0 8 4 - - SSW 0,0
21.01.2021 16:00:00 7,0 4,5 16 9 - - SSW 0,0
21.01.2021 15:00:00 8,7 4,0 11 6 - - S 0,0
21.01.2021 14:00:00 9,1 2,3 22 12 - - SW 0,0
21.01.2021 13:00:00 8,9 2,1 24 13 - - SW 0,0
21.01.2021 12:00:00 8,9 2,7 22 12 - - WSW 0,0
21.01.2021 11:00:00 8,2 2,8 31 17 55 30 SW 0,0
21.01.2021 10:00:00 7,6 2,0 37 20 59 32 SW 0,0
21.01.2021 09:00:00 7,0 1,7 35 19 48 26 WSW 0,0
21.01.2021 08:00:00 6,6 2,3 31 17 48 26 SW 0,0
21.01.2021 07:00:00 6,3 2,3 26 14 - - SW 0,0
21.01.2021 06:00:00 6,0 2,2 28 15 - - SW 0,0
21.01.2021 05:00:00 5,6 2,0 31 17 - - SW 0,0
21.01.2021 04:00:00 5,2 1,8 28 15 - - WSW 0,0
21.01.2021 03:00:00 5,1 1,5 28 15 46 25 WSW 0,0
21.01.2021 02:00:00 4,9 1,7 24 13 61 33 WSW 0,0
21.01.2021 01:00:00 5,5 1,7 37 20 68 37 W 0,0
21.01.2021 00:00:00 5,8 3,1 39 21 59 32 W 0,0
20.01.2021 23:00:00 6,1 3,4 29 16 81 44 W 0,0
20.01.2021 22:00:00 10,1 8,4 44 24 72 39 S 0,0
20.01.2021 21:00:00 9,9 7,6 39 21 72 39 S 0,0
20.01.2021 20:00:00 10,2 7,5 44 24 76 41 S 0,0
20.01.2021 19:00:00 9,9 7,5 41 22 65 35 S 0,0
20.01.2021 18:00:00 10,4 7,8 44 24 70 38 S 0,0
20.01.2021 17:00:00 10,3 8,4 44 24 74 40 S 0,0
20.01.2021 16:00:00 9,9 8,2 41 22 67 36 S 0,0
20.01.2021 15:00:00 9,9 8,3 39 21 61 33 S 0,0
20.01.2021 14:00:00 9,9 8,2 41 22 61 33 S 0,0
20.01.2021 13:00:00 10,0 8,4 42 23 68 37 SSW 0,0
20.01.2021 12:00:00 9,9 8,5 41 22 74 40 S 0,0
20.01.2021 11:00:00 9,7 8,4 42 23 67 36 SSW 0,0
20.01.2021 10:00:00 9,8 8,6 44 24 78 42 SSW 0,0
20.01.2021 09:00:00 9,9 8,5 44 24 68 37 SSW 0,0
20.01.2021 08:00:00 9,7 8,6 41 22 59 32 SSW 0,0
20.01.2021 07:00:00 9,8 8,4 37 20 67 36 S 0,0
20.01.2021 06:00:00 10,1 8,9 46 25 70 38 SSW 0,0
20.01.2021 05:00:00 10,0 8,9 48 26 74 40 SSW 0,0
20.01.2021 04:00:00 10,1 9,1 48 26 78 42 SSW 0,0
20.01.2021 03:00:00 10,2 9,1 48 26 80 43 SSW 0,0
20.01.2021 02:00:00 9,9 9,0 46 25 76 41 SSW 0,0
20.01.2021 01:00:00 10,1 9,1 50 27 78 42 SSW 0,0
20.01.2021 00:00:00 10,1 9,2 48 26 76 41 SSW 0,0
19.01.2021 23:00:00 10,2 9,2 46 25 78 42 SSW 0,0
19.01.2021 22:00:00 10,1 8,9 42 23 72 39 SSW 0,0
19.01.2021 21:00:00 10,0 8,8 41 22 68 37 SSW 0,0
19.01.2021 20:00:00 9,6 8,5 39 21 70 38 SSW 0,0
19.01.2021 19:00:00 9,6 8,4 41 22 63 34 SSW 0,0
19.01.2021 18:00:00 9,8 8,3 41 22 61 33 S 0,0
19.01.2021 17:00:00 10,0 7,9 37 20 57 31 SSW 0,0
19.01.2021 16:00:00 10,0 8,1 37 20 59 32 SSW 0,0
19.01.2021 15:00:00 10,0 8,0 34 18 57 31 SSW 0,0
19.01.2021 14:00:00 10,0 8,0 44 24 65 35 SW 0,0
19.01.2021 13:00:00 9,9 8,1 31 17 50 27 SW 0,0
19.01.2021 12:00:00 9,9 8,1 31 17 50 27 SW 0,0
19.01.2021 11:00:00 10,1 7,9 29 16 55 30 SW 0,0
19.01.2021 10:00:00 9,9 8,8 37 20 54 29 WSW 0,0
19.01.2021 09:00:00 10,5 9,4 31 17 52 28 SW 0,0
19.01.2021 08:00:00 10,7 9,5 37 20 55 30 WSW 0,0
19.01.2021 07:00:00 10,8 9,5 37 20 46 25 WSW 0,0
19.01.2021 06:00:00 10,6 9,6 28 15 48 26 WSW 0,0
19.01.2021 05:00:00 10,7 9,8 34 18 54 29 WSW 0,0
19.01.2021 04:00:00 10,7 9,9 35 19 52 28 WSW 0,0
19.01.2021 03:00:00 10,5 9,8 34 18 68 37 SW 0,0
19.01.2021 02:00:00 9,9 9,2 41 22 65 35 SW 0,0
19.01.2021 01:00:00 9,7 8,9 39 21 61 33 SSW 0,0
19.01.2021 00:00:00 9,6 8,9 39 21 61 33 SSW 0,0
18.01.2021 23:00:00 9,6 8,9 39 21 59 32 SSW 0,0
18.01.2021 22:00:00 9,3 8,6 39 21 57 31 SSW 0,0
18.01.2021 21:00:00 8,7 7,8 35 19 50 27 SSW 0,0
18.01.2021 20:00:00 8,4 7,2 35 19 54 29 SSW 0,0
18.01.2021 19:00:00 8,4 7,2 31 17 - - SSW 0,0
18.01.2021 18:00:00 8,4 6,9 24 13 - - SSW 0,0
18.01.2021 17:00:00 8,5 6,1 22 12 - - SSW 0,0
18.01.2021 16:00:00 8,5 5,1 16 9 - - SW 0,0
18.01.2021 15:00:00 8,6 4,9 15 8 - - SW 0,0

tt = Température de l'air
td = dewpoint
ff = Vitesse du vent
fx = gusts
dd = Direction du vent
rr = Quantités de précipitations

stations d'obs. à proximité